sensor_id;sensor_type;location;lat;lon;timestamp;P1;durP1;ratioP1;P2;durP2;ratioP2
57155;SDS011;43023;59.928;10.682;2023-03-02T00:00:39;4.10;;;2.70;;
57155;SDS011;43023;59.928;10.682;2023-03-02T00:03:05;3.33;;;2.72;;
57155;SDS011;43023;59.928;10.682;2023-03-02T00:05:31;5.40;;;2.85;;
57155;SDS011;43023;59.928;10.682;2023-03-02T00:07:58;4.47;;;2.97;;
57155;SDS011;43023;59.928;10.682;2023-03-02T00:10:24;4.80;;;2.53;;
57155;SDS011;43023;59.928;10.682;2023-03-02T00:12:51;4.20;;;2.75;;
57155;SDS011;43023;59.928;10.682;2023-03-02T00:15:17;4.57;;;2.65;;
57155;SDS011;43023;59.928;10.682;2023-03-02T00:17:43;3.25;;;2.60;;
57155;SDS011;43023;59.928;10.682;2023-03-02T00:20:09;3.97;;;2.70;;
57155;SDS011;43023;59.928;10.682;2023-03-02T00:22:39;4.00;;;2.67;;
57155;SDS011;43023;59.928;10.682;2023-03-02T00:25:06;3.22;;;2.67;;
57155;SDS011;43023;59.928;10.682;2023-03-02T00:27:33;4.35;;;2.63;;
57155;SDS011;43023;59.928;10.682;2023-03-02T00:29:59;3.60;;;2.35;;
57155;SDS011;43023;59.928;10.682;2023-03-02T00:32:25;6.85;;;2.50;;
57155;SDS011;43023;59.928;10.682;2023-03-02T00:34:51;5.50;;;2.75;;
57155;SDS011;43023;59.928;10.682;2023-03-02T00:37:18;5.28;;;2.72;;
57155;SDS011;43023;59.928;10.682;2023-03-02T00:39:44;3.70;;;2.60;;
57155;SDS011;43023;59.928;10.682;2023-03-02T00:42:10;4.38;;;2.72;;
57155;SDS011;43023;59.928;10.682;2023-03-02T00:44:36;3.80;;;2.40;;
57155;SDS011;43023;59.928;10.682;2023-03-02T00:47:02;4.93;;;2.85;;
57155;SDS011;43023;59.928;10.682;2023-03-02T00:49:28;3.53;;;2.58;;
57155;SDS011;43023;59.928;10.682;2023-03-02T00:51:54;3.92;;;2.35;;
57155;SDS011;43023;59.928;10.682;2023-03-02T00:54:20;4.10;;;2.60;;
57155;SDS011;43023;59.928;10.682;2023-03-02T00:56:46;4.38;;;3.05;;
57155;SDS011;43023;59.928;10.682;2023-03-02T00:59:12;3.53;;;2.30;;
57155;SDS011;43023;59.928;10.682;2023-03-02T01:01:50;4.95;;;2.90;;
57155;SDS011;43023;59.928;10.682;2023-03-02T01:04:25;5.43;;;2.88;;
57155;SDS011;43023;59.928;10.682;2023-03-02T01:06:56;4.68;;;2.70;;
57155;SDS011;43023;59.928;10.682;2023-03-02T01:09:22;5.63;;;2.80;;
57155;SDS011;43023;59.928;10.682;2023-03-02T01:11:48;5.50;;;2.65;;
57155;SDS011;43023;59.928;10.682;2023-03-02T01:14:14;5.65;;;2.67;;
57155;SDS011;43023;59.928;10.682;2023-03-02T01:16:40;5.63;;;2.78;;
57155;SDS011;43023;59.928;10.682;2023-03-02T01:19:06;4.50;;;2.50;;
57155;SDS011;43023;59.928;10.682;2023-03-02T01:21:33;2.78;;;2.17;;
57155;SDS011;43023;59.928;10.682;2023-03-02T01:23:59;6.10;;;2.45;;
57155;SDS011;43023;59.928;10.682;2023-03-02T01:26:25;4.90;;;2.50;;
57155;SDS011;43023;59.928;10.682;2023-03-02T01:28:51;4.25;;;2.00;;
57155;SDS011;43023;59.928;10.682;2023-03-02T01:31:22;3.33;;;2.20;;
57155;SDS011;43023;59.928;10.682;2023-03-02T01:33:48;4.38;;;2.35;;
57155;SDS011;43023;59.928;10.682;2023-03-02T01:36:14;4.82;;;2.55;;
57155;SDS011;43023;59.928;10.682;2023-03-02T01:38:41;3.78;;;2.75;;
57155;SDS011;43023;59.928;10.682;2023-03-02T01:41:07;4.22;;;2.53;;
57155;SDS011;43023;59.928;10.682;2023-03-02T01:43:33;4.55;;;2.72;;
57155;SDS011;43023;59.928;10.682;2023-03-02T01:46:21;3.00;;;1.98;;
57155;SDS011;43023;59.928;10.682;2023-03-02T01:51:16;3.88;;;2.58;;
57155;SDS011;43023;59.928;10.682;2023-03-02T01:53:43;3.70;;;2.33;;
57155;SDS011;43023;59.928;10.682;2023-03-02T01:56:18;3.60;;;2.25;;
57155;SDS011;43023;59.928;10.682;2023-03-02T01:58:45;4.05;;;2.65;;
57155;SDS011;43023;59.928;10.682;2023-03-02T02:01:11;2.80;;;1.80;;
57155;SDS011;43023;59.928;10.682;2023-03-02T02:03:45;2.55;;;2.20;;
57155;SDS011;43023;59.928;10.682;2023-03-02T02:08:42;3.85;;;2.78;;
57155;SDS011;43023;59.928;10.682;2023-03-02T02:11:09;2.83;;;1.90;;
57155;SDS011;43023;59.928;10.682;2023-03-02T02:13:35;3.50;;;1.65;;
57155;SDS011;43023;59.928;10.682;2023-03-02T02:16:01;1.90;;;1.63;;
57155;SDS011;43023;59.928;10.682;2023-03-02T02:18:27;2.15;;;1.58;;
57155;SDS011;43023;59.928;10.682;2023-03-02T02:20:53;5.60;;;2.50;;
57155;SDS011;43023;59.928;10.682;2023-03-02T02:26:32;2.47;;;1.90;;
57155;SDS011;43023;59.928;10.682;2023-03-02T02:29:04;3.22;;;1.98;;
57155;SDS011;43023;59.928;10.682;2023-03-02T02:31:52;3.42;;;2.22;;
57155;SDS011;43023;59.928;10.682;2023-03-02T02:39:44;2.45;;;1.75;;
57155;SDS011;43023;59.928;10.682;2023-03-02T02:42:12;3.75;;;2.13;;
57155;SDS011;43023;59.928;10.682;2023-03-02T02:44:39;2.65;;;1.65;;
57155;SDS011;43023;59.928;10.682;2023-03-02T02:47:12;2.80;;;1.80;;
57155;SDS011;43023;59.928;10.682;2023-03-02T02:49:39;2.30;;;1.88;;
57155;SDS011;43023;59.928;10.682;2023-03-02T02:52:06;1.48;;;1.38;;
57155;SDS011;43023;59.928;10.682;2023-03-02T02:54:35;2.35;;;1.83;;
57155;SDS011;43023;59.928;10.682;2023-03-02T02:57:02;2.30;;;1.75;;
57155;SDS011;43023;59.928;10.682;2023-03-02T02:59:31;2.72;;;1.48;;
57155;SDS011;43023;59.928;10.682;2023-03-02T03:01:58;2.13;;;1.70;;
57155;SDS011;43023;59.928;10.682;2023-03-02T03:04:25;2.95;;;1.38;;
57155;SDS011;43023;59.928;10.682;2023-03-02T03:07:12;2.40;;;1.50;;
57155;SDS011;43023;59.928;10.682;2023-03-02T03:09:38;2.33;;;1.70;;
57155;SDS011;43023;59.928;10.682;2023-03-02T03:12:09;2.78;;;1.58;;
57155;SDS011;43023;59.928;10.682;2023-03-02T03:14:37;1.95;;;1.60;;
57155;SDS011;43023;59.928;10.682;2023-03-02T03:17:03;3.65;;;1.70;;
57155;SDS011;43023;59.928;10.682;2023-03-02T03:19:36;1.42;;;1.33;;
57155;SDS011;43023;59.928;10.682;2023-03-02T03:22:03;2.50;;;1.70;;
57155;SDS011;43023;59.928;10.682;2023-03-02T03:24:30;1.65;;;1.23;;
57155;SDS011;43023;59.928;10.682;2023-03-02T03:26:57;4.85;;;1.83;;
57155;SDS011;43023;59.928;10.682;2023-03-02T03:29:24;1.23;;;1.13;;
57155;SDS011;43023;59.928;10.682;2023-03-02T03:31:51;2.25;;;1.40;;
57155;SDS011;43023;59.928;10.682;2023-03-02T03:34:17;1.95;;;1.35;;
57155;SDS011;43023;59.928;10.682;2023-03-02T03:36:43;1.95;;;1.38;;
57155;SDS011;43023;59.928;10.682;2023-03-02T03:39:09;1.88;;;1.35;;
57155;SDS011;43023;59.928;10.682;2023-03-02T03:41:36;1.73;;;1.40;;
57155;SDS011;43023;59.928;10.682;2023-03-02T03:44:02;2.55;;;1.30;;
57155;SDS011;43023;59.928;10.682;2023-03-02T03:46:28;1.85;;;1.33;;
57155;SDS011;43023;59.928;10.682;2023-03-02T03:48:54;2.35;;;1.85;;
57155;SDS011;43023;59.928;10.682;2023-03-02T03:51:21;1.38;;;1.13;;
57155;SDS011;43023;59.928;10.682;2023-03-02T03:53:47;1.95;;;1.10;;
57155;SDS011;43023;59.928;10.682;2023-03-02T03:56:26;1.60;;;1.20;;
57155;SDS011;43023;59.928;10.682;2023-03-02T03:58:52;1.23;;;1.00;;
57155;SDS011;43023;59.928;10.682;2023-03-02T04:01:30;2.60;;;1.05;;
57155;SDS011;43023;59.928;10.682;2023-03-02T04:03:58;2.25;;;1.35;;
57155;SDS011;43023;59.928;10.682;2023-03-02T04:06:25;1.75;;;1.10;;
57155;SDS011;43023;59.928;10.682;2023-03-02T04:08:51;1.15;;;1.00;;
57155;SDS011;43023;59.928;10.682;2023-03-02T04:11:17;1.08;;;0.98;;
57155;SDS011;43023;59.928;10.682;2023-03-02T04:13:43;1.05;;;0.80;;
57155;SDS011;43023;59.928;10.682;2023-03-02T04:16:09;1.40;;;0.95;;
57155;SDS011;43023;59.928;10.682;2023-03-02T04:18:35;1.55;;;1.17;;
57155;SDS011;43023;59.928;10.682;2023-03-02T04:21:01;1.02;;;0.90;;
57155;SDS011;43023;59.928;10.682;2023-03-02T04:23:27;1.30;;;1.17;;
57155;SDS011;43023;59.928;10.682;2023-03-02T04:25:53;1.52;;;0.88;;
57155;SDS011;43023;59.928;10.682;2023-03-02T04:28:19;1.35;;;1.00;;
57155;SDS011;43023;59.928;10.682;2023-03-02T04:30:45;1.15;;;0.80;;
57155;SDS011;43023;59.928;10.682;2023-03-02T04:33:11;0.65;;;0.55;;
57155;SDS011;43023;59.928;10.682;2023-03-02T04:35:37;0.90;;;0.82;;
57155;SDS011;43023;59.928;10.682;2023-03-02T04:38:03;1.60;;;0.60;;
57155;SDS011;43023;59.928;10.682;2023-03-02T04:40:29;1.00;;;0.77;;
57155;SDS011;43023;59.928;10.682;2023-03-02T04:42:56;0.57;;;0.57;;
57155;SDS011;43023;59.928;10.682;2023-03-02T04:45:22;1.00;;;0.80;;
57155;SDS011;43023;59.928;10.682;2023-03-02T04:47:48;1.85;;;0.90;;
57155;SDS011;43023;59.928;10.682;2023-03-02T04:50:14;1.52;;;0.65;;
57155;SDS011;43023;59.928;10.682;2023-03-02T04:52:40;1.05;;;0.80;;
57155;SDS011;43023;59.928;10.682;2023-03-02T04:55:06;1.17;;;0.75;;
57155;SDS011;43023;59.928;10.682;2023-03-02T04:57:33;0.43;;;0.43;;
57155;SDS011;43023;59.928;10.682;2023-03-02T04:59:59;1.88;;;0.93;;
57155;SDS011;43023;59.928;10.682;2023-03-02T05:02:25;1.20;;;0.73;;
57155;SDS011;43023;59.928;10.682;2023-03-02T05:04:51;1.38;;;0.80;;
57155;SDS011;43023;59.928;10.682;2023-03-02T05:07:17;1.70;;;0.80;;
57155;SDS011;43023;59.928;10.682;2023-03-02T05:09:43;0.60;;;0.60;;
57155;SDS011;43023;59.928;10.682;2023-03-02T05:12:09;0.68;;;0.63;;
57155;SDS011;43023;59.928;10.682;2023-03-02T05:14:35;1.00;;;0.75;;
57155;SDS011;43023;59.928;10.682;2023-03-02T05:17:01;0.80;;;0.52;;
57155;SDS011;43023;59.928;10.682;2023-03-02T05:19:27;0.82;;;0.70;;
57155;SDS011;43023;59.928;10.682;2023-03-02T05:21:53;0.95;;;0.60;;
57155;SDS011;43023;59.928;10.682;2023-03-02T05:24:20;0.90;;;0.60;;
57155;SDS011;43023;59.928;10.682;2023-03-02T05:26:46;0.60;;;0.60;;
57155;SDS011;43023;59.928;10.682;2023-03-02T05:29:12;0.70;;;0.68;;
57155;SDS011;43023;59.928;10.682;2023-03-02T05:31:39;0.85;;;0.55;;
57155;SDS011;43023;59.928;10.682;2023-03-02T05:34:07;1.00;;;0.63;;
57155;SDS011;43023;59.928;10.682;2023-03-02T05:36:33;3.22;;;0.70;;
57155;SDS011;43023;59.928;10.682;2023-03-02T05:38:59;1.23;;;0.80;;
57155;SDS011;43023;59.928;10.682;2023-03-02T05:41:25;0.75;;;0.68;;
57155;SDS011;43023;59.928;10.682;2023-03-02T05:43:52;1.60;;;0.57;;
57155;SDS011;43023;59.928;10.682;2023-03-02T05:46:18;0.52;;;0.40;;
57155;SDS011;43023;59.928;10.682;2023-03-02T05:48:44;1.48;;;0.95;;
57155;SDS011;43023;59.928;10.682;2023-03-02T05:51:11;3.22;;;0.50;;
57155;SDS011;43023;59.928;10.682;2023-03-02T05:53:37;0.60;;;0.60;;
57155;SDS011;43023;59.928;10.682;2023-03-02T05:56:04;0.70;;;0.60;;
57155;SDS011;43023;59.928;10.682;2023-03-02T05:58:30;1.40;;;0.90;;
57155;SDS011;43023;59.928;10.682;2023-03-02T06:00:56;0.80;;;0.50;;
57155;SDS011;43023;59.928;10.682;2023-03-02T06:03:22;1.20;;;1.10;;
57155;SDS011;43023;59.928;10.682;2023-03-02T06:05:48;1.25;;;0.55;;
57155;SDS011;43023;59.928;10.682;2023-03-02T06:08:16;1.40;;;0.70;;
57155;SDS011;43023;59.928;10.682;2023-03-02T06:10:43;1.55;;;0.70;;
57155;SDS011;43023;59.928;10.682;2023-03-02T06:13:09;1.60;;;0.68;;
57155;SDS011;43023;59.928;10.682;2023-03-02T06:15:35;2.15;;;0.70;;
57155;SDS011;43023;59.928;10.682;2023-03-02T06:18:04;4.30;;;0.70;;
57155;SDS011;43023;59.928;10.682;2023-03-02T06:20:30;2.85;;;0.80;;
57155;SDS011;43023;59.928;10.682;2023-03-02T06:22:56;2.13;;;1.00;;
57155;SDS011;43023;59.928;10.682;2023-03-02T06:25:23;2.45;;;0.85;;
57155;SDS011;43023;59.928;10.682;2023-03-02T06:27:49;0.80;;;0.70;;
57155;SDS011;43023;59.928;10.682;2023-03-02T06:30:17;0.93;;;0.75;;
57155;SDS011;43023;59.928;10.682;2023-03-02T06:32:43;0.70;;;0.57;;
57155;SDS011;43023;59.928;10.682;2023-03-02T06:35:10;2.50;;;1.27;;
57155;SDS011;43023;59.928;10.682;2023-03-02T06:37:37;3.17;;;0.82;;
57155;SDS011;43023;59.928;10.682;2023-03-02T06:40:04;0.70;;;0.65;;
57155;SDS011;43023;59.928;10.682;2023-03-02T06:42:34;2.80;;;1.17;;
57155;SDS011;43023;59.928;10.682;2023-03-02T06:45:00;3.55;;;0.80;;
57155;SDS011;43023;59.928;10.682;2023-03-02T06:47:26;8.52;;;0.80;;
57155;SDS011;43023;59.928;10.682;2023-03-02T06:49:52;2.75;;;0.80;;
57155;SDS011;43023;59.928;10.682;2023-03-02T06:52:19;1.92;;;0.50;;
57155;SDS011;43023;59.928;10.682;2023-03-02T06:54:45;4.65;;;0.68;;
57155;SDS011;43023;59.928;10.682;2023-03-02T06:57:11;2.40;;;0.50;;
57155;SDS011;43023;59.928;10.682;2023-03-02T06:59:37;1.10;;;0.70;;
57155;SDS011;43023;59.928;10.682;2023-03-02T07:02:03;0.77;;;0.60;;
57155;SDS011;43023;59.928;10.682;2023-03-02T07:04:29;2.55;;;0.80;;
57155;SDS011;43023;59.928;10.682;2023-03-02T07:06:55;0.80;;;0.57;;
57155;SDS011;43023;59.928;10.682;2023-03-02T07:09:21;3.95;;;0.80;;
57155;SDS011;43023;59.928;10.682;2023-03-02T07:11:48;3.15;;;0.60;;
57155;SDS011;43023;59.928;10.682;2023-03-02T07:14:14;2.30;;;0.82;;
57155;SDS011;43023;59.928;10.682;2023-03-02T07:16:40;2.67;;;0.77;;
57155;SDS011;43023;59.928;10.682;2023-03-02T07:19:09;0.77;;;0.47;;
57155;SDS011;43023;59.928;10.682;2023-03-02T07:21:36;1.38;;;0.70;;
57155;SDS011;43023;59.928;10.682;2023-03-02T07:24:02;2.00;;;0.60;;
57155;SDS011;43023;59.928;10.682;2023-03-02T07:26:28;0.75;;;0.40;;
57155;SDS011;43023;59.928;10.682;2023-03-02T07:28:54;0.77;;;0.60;;
57155;SDS011;43023;59.928;10.682;2023-03-02T07:31:23;1.45;;;0.88;;
57155;SDS011;43023;59.928;10.682;2023-03-02T07:33:49;1.35;;;0.60;;
57155;SDS011;43023;59.928;10.682;2023-03-02T07:36:15;3.22;;;0.88;;
57155;SDS011;43023;59.928;10.682;2023-03-02T07:38:41;0.75;;;0.50;;
57155;SDS011;43023;59.928;10.682;2023-03-02T07:41:08;1.67;;;0.93;;
57155;SDS011;43023;59.928;10.682;2023-03-02T07:43:35;1.63;;;0.90;;
57155;SDS011;43023;59.928;10.682;2023-03-02T07:46:02;2.20;;;0.68;;
57155;SDS011;43023;59.928;10.682;2023-03-02T07:48:28;0.90;;;0.88;;
57155;SDS011;43023;59.928;10.682;2023-03-02T07:50:58;1.85;;;0.80;;
57155;SDS011;43023;59.928;10.682;2023-03-02T07:53:24;1.95;;;0.80;;
57155;SDS011;43023;59.928;10.682;2023-03-02T07:55:50;1.13;;;0.80;;
57155;SDS011;43023;59.928;10.682;2023-03-02T07:58:16;2.05;;;1.08;;
57155;SDS011;43023;59.928;10.682;2023-03-02T08:00:43;1.17;;;0.70;;
57155;SDS011;43023;59.928;10.682;2023-03-02T08:03:09;1.60;;;1.13;;
57155;SDS011;43023;59.928;10.682;2023-03-02T08:05:35;1.90;;;0.90;;
57155;SDS011;43023;59.928;10.682;2023-03-02T08:08:01;1.27;;;1.00;;
57155;SDS011;43023;59.928;10.682;2023-03-02T08:10:27;1.15;;;0.95;;
57155;SDS011;43023;59.928;10.682;2023-03-02T08:12:53;2.60;;;1.00;;
57155;SDS011;43023;59.928;10.682;2023-03-02T08:15:19;3.05;;;0.93;;
57155;SDS011;43023;59.928;10.682;2023-03-02T08:17:45;0.63;;;0.60;;
57155;SDS011;43023;59.928;10.682;2023-03-02T08:20:11;3.45;;;1.20;;
57155;SDS011;43023;59.928;10.682;2023-03-02T08:22:38;2.78;;;0.80;;
57155;SDS011;43023;59.928;10.682;2023-03-02T08:25:04;2.60;;;0.98;;
57155;SDS011;43023;59.928;10.682;2023-03-02T08:27:31;1.05;;;0.90;;
57155;SDS011;43023;59.928;10.682;2023-03-02T08:29:57;1.10;;;0.68;;
57155;SDS011;43023;59.928;10.682;2023-03-02T08:32:23;1.05;;;0.93;;
57155;SDS011;43023;59.928;10.682;2023-03-02T08:34:49;0.98;;;0.60;;
57155;SDS011;43023;59.928;10.682;2023-03-02T08:37:16;7.57;;;1.08;;
57155;SDS011;43023;59.928;10.682;2023-03-02T08:39:43;2.40;;;0.80;;
57155;SDS011;43023;59.928;10.682;2023-03-02T08:42:09;3.60;;;0.70;;
57155;SDS011;43023;59.928;10.682;2023-03-02T08:44:35;1.77;;;0.73;;
57155;SDS011;43023;59.928;10.682;2023-03-02T08:47:01;3.40;;;1.30;;
57155;SDS011;43023;59.928;10.682;2023-03-02T08:49:27;1.42;;;0.98;;
57155;SDS011;43023;59.928;10.682;2023-03-02T08:51:53;2.65;;;1.20;;
57155;SDS011;43023;59.928;10.682;2023-03-02T08:54:20;0.60;;;0.60;;
57155;SDS011;43023;59.928;10.682;2023-03-02T08:56:47;1.25;;;0.93;;
57155;SDS011;43023;59.928;10.682;2023-03-02T08:59:14;2.13;;;1.17;;
57155;SDS011;43023;59.928;10.682;2023-03-02T09:01:41;2.97;;;0.90;;
57155;SDS011;43023;59.928;10.682;2023-03-02T09:04:08;2.28;;;1.00;;
57155;SDS011;43023;59.928;10.682;2023-03-02T09:06:35;1.17;;;0.82;;
57155;SDS011;43023;59.928;10.682;2023-03-02T09:09:02;1.05;;;0.80;;
57155;SDS011;43023;59.928;10.682;2023-03-02T09:11:28;0.95;;;0.95;;
57155;SDS011;43023;59.928;10.682;2023-03-02T09:13:54;1.73;;;0.77;;
57155;SDS011;43023;59.928;10.682;2023-03-02T09:16:21;2.92;;;1.20;;
57155;SDS011;43023;59.928;10.682;2023-03-02T09:18:50;2.83;;;0.70;;
57155;SDS011;43023;59.928;10.682;2023-03-02T09:21:17;1.50;;;0.88;;
57155;SDS011;43023;59.928;10.682;2023-03-02T09:23:43;2.97;;;1.00;;
57155;SDS011;43023;59.928;10.682;2023-03-02T09:26:10;3.35;;;1.02;;
57155;SDS011;43023;59.928;10.682;2023-03-02T09:28:36;2.08;;;1.48;;
57155;SDS011;43023;59.928;10.682;2023-03-02T09:31:03;2.15;;;1.00;;
57155;SDS011;43023;59.928;10.682;2023-03-02T09:33:30;1.77;;;1.25;;
57155;SDS011;43023;59.928;10.682;2023-03-02T09:35:56;1.83;;;0.95;;
57155;SDS011;43023;59.928;10.682;2023-03-02T09:38:23;1.17;;;0.88;;
57155;SDS011;43023;59.928;10.682;2023-03-02T09:54:22;4.82;;;1.75;;
57155;SDS011;43023;59.928;10.682;2023-03-02T09:56:29;1.65;;;0.95;;
57155;SDS011;43023;59.928;10.682;2023-03-02T10:01:33;1.55;;;0.85;;
57155;SDS011;43023;59.928;10.682;2023-03-02T10:04:07;1.27;;;0.93;;
57155;SDS011;43023;59.928;10.682;2023-03-02T10:06:33;1.30;;;1.00;;
57155;SDS011;43023;59.928;10.682;2023-03-02T10:09:00;1.15;;;0.80;;
57155;SDS011;43023;59.928;10.682;2023-03-02T10:14:47;1.77;;;0.73;;
57155;SDS011;43023;59.928;10.682;2023-03-02T10:16:48;1.33;;;0.85;;
57155;SDS011;43023;59.928;10.682;2023-03-02T10:19:35;0.60;;;0.60;;
57155;SDS011;43023;59.928;10.682;2023-03-02T10:22:12;1.60;;;0.75;;
57155;SDS011;43023;59.928;10.682;2023-03-02T10:27:12;2.72;;;1.23;;
57155;SDS011;43023;59.928;10.682;2023-03-02T10:34:39;2.72;;;1.40;;
57155;SDS011;43023;59.928;10.682;2023-03-02T10:37:16;3.00;;;0.80;;
57155;SDS011;43023;59.928;10.682;2023-03-02T10:39:42;2.95;;;1.30;;
57155;SDS011;43023;59.928;10.682;2023-03-02T10:42:13;4.05;;;1.25;;
57155;SDS011;43023;59.928;10.682;2023-03-02T10:44:41;1.35;;;0.80;;
57155;SDS011;43023;59.928;10.682;2023-03-02T10:47:17;1.27;;;0.80;;
57155;SDS011;43023;59.928;10.682;2023-03-02T10:49:45;2.58;;;0.70;;
57155;SDS011;43023;59.928;10.682;2023-03-02T10:52:12;2.00;;;1.20;;
57155;SDS011;43023;59.928;10.682;2023-03-02T10:54:38;3.00;;;0.80;;
57155;SDS011;43023;59.928;10.682;2023-03-02T10:57:55;4.82;;;0.60;;
57155;SDS011;43023;59.928;10.682;2023-03-02T10:59:56;1.15;;;0.50;;
57155;SDS011;43023;59.928;10.682;2023-03-02T11:02:24;3.70;;;0.95;;
57155;SDS011;43023;59.928;10.682;2023-03-02T11:04:55;0.98;;;0.73;;
57155;SDS011;43023;59.928;10.682;2023-03-02T11:07:23;1.33;;;0.73;;
57155;SDS011;43023;59.928;10.682;2023-03-02T11:09:56;1.13;;;0.60;;
57155;SDS011;43023;59.928;10.682;2023-03-02T11:12:22;1.75;;;0.50;;
57155;SDS011;43023;59.928;10.682;2023-03-02T11:14:48;0.73;;;0.50;;
57155;SDS011;43023;59.928;10.682;2023-03-02T11:17:33;0.85;;;0.70;;
57155;SDS011;43023;59.928;10.682;2023-03-02T11:20:02;0.57;;;0.57;;
57155;SDS011;43023;59.928;10.682;2023-03-02T11:24:57;2.28;;;0.60;;
57155;SDS011;43023;59.928;10.682;2023-03-02T11:27:28;0.85;;;0.60;;
57155;SDS011;43023;59.928;10.682;2023-03-02T11:30:03;1.60;;;0.68;;
57155;SDS011;43023;59.928;10.682;2023-03-02T11:32:33;1.75;;;0.50;;
57155;SDS011;43023;59.928;10.682;2023-03-02T11:37:29;0.70;;;0.50;;
57155;SDS011;43023;59.928;10.682;2023-03-02T11:40:04;0.52;;;0.52;;
57155;SDS011;43023;59.928;10.682;2023-03-02T11:42:35;2.28;;;0.65;;
57155;SDS011;43023;59.928;10.682;2023-03-02T11:45:05;0.70;;;0.47;;
57155;SDS011;43023;59.928;10.682;2023-03-02T11:50:25;2.42;;;0.50;;
57155;SDS011;43023;59.928;10.682;2023-03-02T11:52:53;1.35;;;0.50;;
57155;SDS011;43023;59.928;10.682;2023-03-02T11:55:21;0.35;;;0.35;;
57155;SDS011;43023;59.928;10.682;2023-03-02T11:57:52;0.70;;;0.63;;
57155;SDS011;43023;59.928;10.682;2023-03-02T12:02:56;1.10;;;0.55;;
57155;SDS011;43023;59.928;10.682;2023-03-02T12:05:24;0.88;;;0.30;;
57155;SDS011;43023;59.928;10.682;2023-03-02T12:07:59;0.60;;;0.60;;
57155;SDS011;43023;59.928;10.682;2023-03-02T12:10:31;1.35;;;0.60;;
57155;SDS011;43023;59.928;10.682;2023-03-02T12:13:02;0.50;;;0.40;;
57155;SDS011;43023;59.928;10.682;2023-03-02T12:15:37;0.98;;;0.47;;
57155;SDS011;43023;59.928;10.682;2023-03-02T12:20:57;1.95;;;0.40;;
57155;SDS011;43023;59.928;10.682;2023-03-02T12:23:24;2.25;;;0.65;;
57155;SDS011;43023;59.928;10.682;2023-03-02T12:26:00;2.85;;;0.47;;
57155;SDS011;43023;59.928;10.682;2023-03-02T12:28:31;2.95;;;0.50;;
57155;SDS011;43023;59.928;10.682;2023-03-02T12:31:02;0.63;;;0.53;;
57155;SDS011;43023;59.928;10.682;2023-03-02T12:33:29;1.20;;;0.30;;
57155;SDS011;43023;59.928;10.682;2023-03-02T12:36:02;2.15;;;0.57;;
57155;SDS011;43023;59.928;10.682;2023-03-02T12:38:32;1.83;;;0.65;;
57155;SDS011;43023;59.928;10.682;2023-03-02T12:41:13;4.03;;;0.75;;
57155;SDS011;43023;59.928;10.682;2023-03-02T12:46:32;2.92;;;0.38;;
57155;SDS011;43023;59.928;10.682;2023-03-02T12:49:02;0.40;;;0.32;;
57155;SDS011;43023;59.928;10.682;2023-03-02T12:54:16;2.15;;;0.60;;
57155;SDS011;43023;59.928;10.682;2023-03-02T12:56:43;0.75;;;0.38;;
57155;SDS011;43023;59.928;10.682;2023-03-02T12:59:18;1.23;;;0.63;;
57155;SDS011;43023;59.928;10.682;2023-03-02T13:01:44;1.05;;;0.50;;
57155;SDS011;43023;59.928;10.682;2023-03-02T13:04:21;0.52;;;0.28;;
57155;SDS011;43023;59.928;10.682;2023-03-02T13:06:47;0.90;;;0.47;;
57155;SDS011;43023;59.928;10.682;2023-03-02T13:09:13;3.60;;;0.40;;
57155;SDS011;43023;59.928;10.682;2023-03-02T13:11:40;2.70;;;0.55;;
57155;SDS011;43023;59.928;10.682;2023-03-02T13:14:20;2.55;;;0.43;;
57155;SDS011;43023;59.928;10.682;2023-03-02T13:16:53;1.95;;;0.43;;
57155;SDS011;43023;59.928;10.682;2023-03-02T13:19:19;1.27;;;0.30;;
57155;SDS011;43023;59.928;10.682;2023-03-02T13:21:45;0.32;;;0.30;;
57155;SDS011;43023;59.928;10.682;2023-03-02T13:24:30;1.10;;;0.40;;
57155;SDS011;43023;59.928;10.682;2023-03-02T13:26:58;0.52;;;0.38;;
57155;SDS011;43023;59.928;10.682;2023-03-02T13:29:25;0.70;;;0.57;;
57155;SDS011;43023;59.928;10.682;2023-03-02T13:31:52;0.65;;;0.30;;
57155;SDS011;43023;59.928;10.682;2023-03-02T13:34:22;0.40;;;0.20;;
57155;SDS011;43023;59.928;10.682;2023-03-02T13:36:48;0.45;;;0.45;;
57155;SDS011;43023;59.928;10.682;2023-03-02T13:39:22;1.17;;;0.57;;
57155;SDS011;43023;59.928;10.682;2023-03-02T13:41:51;2.95;;;0.50;;
57155;SDS011;43023;59.928;10.682;2023-03-02T13:44:24;2.03;;;0.30;;
57155;SDS011;43023;59.928;10.682;2023-03-02T13:51:55;0.30;;;0.30;;
57155;SDS011;43023;59.928;10.682;2023-03-02T13:54:27;1.55;;;0.40;;
57155;SDS011;43023;59.928;10.682;2023-03-02T13:56:54;0.32;;;0.30;;
57155;SDS011;43023;59.928;10.682;2023-03-02T13:59:21;1.30;;;0.60;;
57155;SDS011;43023;59.928;10.682;2023-03-02T14:01:47;0.43;;;0.30;;
57155;SDS011;43023;59.928;10.682;2023-03-02T14:04:14;0.30;;;0.10;;
57155;SDS011;43023;59.928;10.682;2023-03-02T14:06:41;2.03;;;0.43;;
57155;SDS011;43023;59.928;10.682;2023-03-02T14:09:07;1.33;;;0.43;;
57155;SDS011;43023;59.928;10.682;2023-03-02T14:11:35;0.68;;;0.40;;
57155;SDS011;43023;59.928;10.682;2023-03-02T14:14:02;0.60;;;0.40;;
57155;SDS011;43023;59.928;10.682;2023-03-02T14:16:30;0.40;;;0.30;;
57155;SDS011;43023;59.928;10.682;2023-03-02T14:19:00;1.42;;;0.57;;
57155;SDS011;43023;59.928;10.682;2023-03-02T14:21:26;0.40;;;0.32;;
57155;SDS011;43023;59.928;10.682;2023-03-02T14:23:53;0.70;;;0.30;;
57155;SDS011;43023;59.928;10.682;2023-03-02T14:28:48;0.55;;;0.30;;
57155;SDS011;43023;59.928;10.682;2023-03-02T14:31:14;0.85;;;0.57;;
57155;SDS011;43023;59.928;10.682;2023-03-02T14:33:42;2.08;;;0.38;;
57155;SDS011;43023;59.928;10.682;2023-03-02T14:36:08;0.38;;;0.30;;
57155;SDS011;43023;59.928;10.682;2023-03-02T14:38:38;0.60;;;0.30;;
57155;SDS011;43023;59.928;10.682;2023-03-02T14:41:04;0.70;;;0.40;;
57155;SDS011;43023;59.928;10.682;2023-03-02T14:43:31;1.25;;;0.28;;
57155;SDS011;43023;59.928;10.682;2023-03-02T14:45:57;0.52;;;0.47;;
57155;SDS011;43023;59.928;10.682;2023-03-02T14:48:23;2.50;;;0.60;;
57155;SDS011;43023;59.928;10.682;2023-03-02T14:50:49;0.80;;;0.50;;
57155;SDS011;43023;59.928;10.682;2023-03-02T14:53:18;0.30;;;0.20;;
57155;SDS011;43023;59.928;10.682;2023-03-02T14:55:45;0.50;;;0.30;;
57155;SDS011;43023;59.928;10.682;2023-03-02T14:58:15;0.55;;;0.30;;
57155;SDS011;43023;59.928;10.682;2023-03-02T15:00:42;1.08;;;0.32;;
57155;SDS011;43023;59.928;10.682;2023-03-02T15:03:12;0.30;;;0.20;;
57155;SDS011;43023;59.928;10.682;2023-03-02T15:05:40;2.72;;;0.30;;
57155;SDS011;43023;59.928;10.682;2023-03-02T15:08:08;0.98;;;0.70;;
57155;SDS011;43023;59.928;10.682;2023-03-02T15:10:35;0.77;;;0.47;;
57155;SDS011;43023;59.928;10.682;2023-03-02T15:13:03;0.95;;;0.40;;
57155;SDS011;43023;59.928;10.682;2023-03-02T15:15:30;0.63;;;0.30;;
57155;SDS011;43023;59.928;10.682;2023-03-02T15:17:56;0.40;;;0.20;;
57155;SDS011;43023;59.928;10.682;2023-03-02T15:20:22;0.50;;;0.32;;
57155;SDS011;43023;59.928;10.682;2023-03-02T15:22:48;2.20;;;0.38;;
57155;SDS011;43023;59.928;10.682;2023-03-02T15:25:15;4.47;;;0.43;;
57155;SDS011;43023;59.928;10.682;2023-03-02T15:27:41;0.82;;;0.20;;
57155;SDS011;43023;59.928;10.682;2023-03-02T15:30:07;2.80;;;0.52;;
57155;SDS011;43023;59.928;10.682;2023-03-02T15:32:37;1.10;;;0.30;;
57155;SDS011;43023;59.928;10.682;2023-03-02T15:35:03;2.30;;;0.43;;
57155;SDS011;43023;59.928;10.682;2023-03-02T15:37:29;1.33;;;0.15;;
57155;SDS011;43023;59.928;10.682;2023-03-02T15:39:55;0.45;;;0.45;;
57155;SDS011;43023;59.928;10.682;2023-03-02T15:42:22;0.35;;;0.30;;